sensor_id;sensor_type;location;lat;lon;timestamp;temperature;humidity
56729;DHT22;42612;52.232;7.560;2022-08-25T00:01:30;28.80;36.30
56729;DHT22;42612;52.232;7.560;2022-08-25T00:04:17;28.80;36.30
56729;DHT22;42612;52.232;7.560;2022-08-25T00:07:04;28.80;36.30
56729;DHT22;42612;52.232;7.560;2022-08-25T00:09:50;28.80;36.40
56729;DHT22;42612;52.232;7.560;2022-08-25T00:12:36;28.80;36.40
56729;DHT22;42612;52.232;7.560;2022-08-25T00:15:22;28.80;36.40
56729;DHT22;42612;52.232;7.560;2022-08-25T00:18:08;28.70;37.10
56729;DHT22;42612;52.232;7.560;2022-08-25T00:20:55;28.70;36.40
56729;DHT22;42612;52.232;7.560;2022-08-25T00:23:41;28.70;36.40
56729;DHT22;42612;52.232;7.560;2022-08-25T00:26:28;28.70;37.20
56729;DHT22;42612;52.232;7.560;2022-08-25T00:29:14;28.70;36.50
56729;DHT22;42612;52.232;7.560;2022-08-25T00:32:00;28.60;36.40
56729;DHT22;42612;52.232;7.560;2022-08-25T00:34:47;28.60;36.50
56729;DHT22;42612;52.232;7.560;2022-08-25T00:37:33;28.60;36.50
56729;DHT22;42612;52.232;7.560;2022-08-25T00:40:21;28.60;36.50
56729;DHT22;42612;52.232;7.560;2022-08-25T00:43:08;28.60;36.50
56729;DHT22;42612;52.232;7.560;2022-08-25T00:45:54;28.60;36.60
56729;DHT22;42612;52.232;7.560;2022-08-25T00:48:40;28.50;36.60
56729;DHT22;42612;52.232;7.560;2022-08-25T00:51:32;28.50;36.70
56729;DHT22;42612;52.232;7.560;2022-08-25T00:54:31;28.50;36.70
56729;DHT22;42612;52.232;7.560;2022-08-25T00:57:23;28.40;36.60
56729;DHT22;42612;52.232;7.560;2022-08-25T01:00:16;28.40;36.60
56729;DHT22;42612;52.232;7.560;2022-08-25T01:03:08;28.40;36.70
56729;DHT22;42612;52.232;7.560;2022-08-25T01:05:54;28.40;36.70
56729;DHT22;42612;52.232;7.560;2022-08-25T01:08:40;28.30;36.70
56729;DHT22;42612;52.232;7.560;2022-08-25T01:11:26;28.30;36.80
56729;DHT22;42612;52.232;7.560;2022-08-25T01:14:13;28.30;36.80
56729;DHT22;42612;52.232;7.560;2022-08-25T01:17:01;28.30;36.80
56729;DHT22;42612;52.232;7.560;2022-08-25T01:23:13;28.20;36.80
56729;DHT22;42612;52.232;7.560;2022-08-25T01:26:19;28.20;36.90
56729;DHT22;42612;52.232;7.560;2022-08-25T01:29:07;28.20;36.90
56729;DHT22;42612;52.232;7.560;2022-08-25T01:35:30;28.20;37.00
56729;DHT22;42612;52.232;7.560;2022-08-25T01:38:53;28.10;36.90
56729;DHT22;42612;52.232;7.560;2022-08-25T01:45:07;28.10;37.00
56729;DHT22;42612;52.232;7.560;2022-08-25T01:48:04;28.10;37.10
56729;DHT22;42612;52.232;7.560;2022-08-25T01:54:01;28.10;37.20
56729;DHT22;42612;52.232;7.560;2022-08-25T01:56:50;28.00;37.10
56729;DHT22;42612;52.232;7.560;2022-08-25T01:59:54;28.00;37.20
56729;DHT22;42612;52.232;7.560;2022-08-25T02:02:40;28.00;37.20
56729;DHT22;42612;52.232;7.560;2022-08-25T02:05:26;28.00;37.30
56729;DHT22;42612;52.232;7.560;2022-08-25T02:08:12;28.00;37.30
56729;DHT22;42612;52.232;7.560;2022-08-25T02:10:58;28.00;37.30
56729;DHT22;42612;52.232;7.560;2022-08-25T02:13:44;27.90;37.40
56729;DHT22;42612;52.232;7.560;2022-08-25T02:16:31;27.80;37.30
56729;DHT22;42612;52.232;7.560;2022-08-25T02:19:20;27.90;37.40
56729;DHT22;42612;52.232;7.560;2022-08-25T02:22:08;27.90;38.20
56729;DHT22;42612;52.232;7.560;2022-08-25T02:24:55;27.90;37.50
56729;DHT22;42612;52.232;7.560;2022-08-25T02:27:40;27.80;37.50
56729;DHT22;42612;52.232;7.560;2022-08-25T02:30:26;27.90;38.10
56729;DHT22;42612;52.232;7.560;2022-08-25T02:33:12;27.80;37.60
56729;DHT22;42612;52.232;7.560;2022-08-25T02:35:59;27.80;37.60
56729;DHT22;42612;52.232;7.560;2022-08-25T02:38:45;27.80;37.70
56729;DHT22;42612;52.232;7.560;2022-08-25T02:41:31;27.80;37.80
56729;DHT22;42612;52.232;7.560;2022-08-25T02:44:18;27.70;37.80
56729;DHT22;42612;52.232;7.560;2022-08-25T02:47:04;27.60;37.70
56729;DHT22;42612;52.232;7.560;2022-08-25T02:49:50;27.60;37.70
56729;DHT22;42612;52.232;7.560;2022-08-25T02:52:36;27.60;37.80
56729;DHT22;42612;52.232;7.560;2022-08-25T02:55:22;27.60;37.90
56729;DHT22;42612;52.232;7.560;2022-08-25T02:58:08;27.60;38.00
56729;DHT22;42612;52.232;7.560;2022-08-25T03:00:55;27.60;38.00
56729;DHT22;42612;52.232;7.560;2022-08-25T03:03:41;27.50;38.00
56729;DHT22;42612;52.232;7.560;2022-08-25T03:06:29;27.50;38.10
56729;DHT22;42612;52.232;7.560;2022-08-25T03:09:15;27.50;38.20
56729;DHT22;42612;52.232;7.560;2022-08-25T03:12:02;27.40;38.20
56729;DHT22;42612;52.232;7.560;2022-08-25T03:14:48;27.40;38.20
56729;DHT22;42612;52.232;7.560;2022-08-25T03:17:34;27.40;38.30
56729;DHT22;42612;52.232;7.560;2022-08-25T03:20:22;27.30;38.30
56729;DHT22;42612;52.232;7.560;2022-08-25T03:23:09;27.30;38.30
56729;DHT22;42612;52.232;7.560;2022-08-25T03:25:55;27.30;39.10
56729;DHT22;42612;52.232;7.560;2022-08-25T03:29:00;27.20;38.40
56729;DHT22;42612;52.232;7.560;2022-08-25T03:31:52;27.20;38.50
56729;DHT22;42612;52.232;7.560;2022-08-25T03:34:39;27.10;38.50
56729;DHT22;42612;52.232;7.560;2022-08-25T03:37:25;27.10;38.60
56729;DHT22;42612;52.232;7.560;2022-08-25T03:40:11;27.00;38.60
56729;DHT22;42612;52.232;7.560;2022-08-25T03:42:59;26.90;38.50
56729;DHT22;42612;52.232;7.560;2022-08-25T03:45:46;26.90;38.70
56729;DHT22;42612;52.232;7.560;2022-08-25T03:48:32;26.80;38.70
56729;DHT22;42612;52.232;7.560;2022-08-25T03:51:38;26.80;38.70
56729;DHT22;42612;52.232;7.560;2022-08-25T03:54:26;26.70;38.90
56729;DHT22;42612;52.232;7.560;2022-08-25T03:57:12;26.70;38.90
56729;DHT22;42612;52.232;7.560;2022-08-25T03:59:58;26.60;38.90
56729;DHT22;42612;52.232;7.560;2022-08-25T04:02:44;26.50;38.90
56729;DHT22;42612;52.232;7.560;2022-08-25T04:05:30;26.50;38.90
56729;DHT22;42612;52.232;7.560;2022-08-25T04:08:16;26.50;39.00
56729;DHT22;42612;52.232;7.560;2022-08-25T04:11:04;26.50;39.10
56729;DHT22;42612;52.232;7.560;2022-08-25T04:13:52;26.50;39.20
56729;DHT22;42612;52.232;7.560;2022-08-25T04:16:38;26.40;39.10
56729;DHT22;42612;52.232;7.560;2022-08-25T04:19:24;26.40;39.20
56729;DHT22;42612;52.232;7.560;2022-08-25T04:22:10;26.40;39.20
56729;DHT22;42612;52.232;7.560;2022-08-25T04:24:57;26.40;39.30
56729;DHT22;42612;52.232;7.560;2022-08-25T04:27:43;26.40;39.30
56729;DHT22;42612;52.232;7.560;2022-08-25T04:30:29;26.30;39.30
56729;DHT22;42612;52.232;7.560;2022-08-25T04:33:15;26.30;39.40
56729;DHT22;42612;52.232;7.560;2022-08-25T04:36:02;26.30;39.50
56729;DHT22;42612;52.232;7.560;2022-08-25T04:38:49;26.30;39.50
56729;DHT22;42612;52.232;7.560;2022-08-25T04:41:35;26.30;39.50
56729;DHT22;42612;52.232;7.560;2022-08-25T04:44:21;26.30;39.60
56729;DHT22;42612;52.232;7.560;2022-08-25T04:47:07;26.30;39.60
56729;DHT22;42612;52.232;7.560;2022-08-25T04:49:53;26.30;39.70
56729;DHT22;42612;52.232;7.560;2022-08-25T04:52:39;26.20;39.70
56729;DHT22;42612;52.232;7.560;2022-08-25T04:55:25;26.20;39.80
56729;DHT22;42612;52.232;7.560;2022-08-25T04:58:11;26.20;39.80
56729;DHT22;42612;52.232;7.560;2022-08-25T05:01:02;26.20;39.90
56729;DHT22;42612;52.232;7.560;2022-08-25T05:03:56;26.20;40.00
56729;DHT22;42612;52.232;7.560;2022-08-25T05:06:44;26.20;40.00
56729;DHT22;42612;52.232;7.560;2022-08-25T05:09:31;26.10;40.00
56729;DHT22;42612;52.232;7.560;2022-08-25T05:12:17;26.20;40.00
56729;DHT22;42612;52.232;7.560;2022-08-25T05:15:03;26.20;40.10
56729;DHT22;42612;52.232;7.560;2022-08-25T05:18:09;26.20;40.10
56729;DHT22;42612;52.232;7.560;2022-08-25T05:20:55;26.20;40.10
56729;DHT22;42612;52.232;7.560;2022-08-25T05:23:42;26.30;40.20
56729;DHT22;42612;52.232;7.560;2022-08-25T05:26:29;26.30;40.20
56729;DHT22;42612;52.232;7.560;2022-08-25T05:29:16;26.30;40.30
56729;DHT22;42612;52.232;7.560;2022-08-25T05:32:02;26.30;40.20
56729;DHT22;42612;52.232;7.560;2022-08-25T05:34:48;26.30;40.20
56729;DHT22;42612;52.232;7.560;2022-08-25T05:37:34;26.40;40.40
56729;DHT22;42612;52.232;7.560;2022-08-25T05:40:20;26.40;40.40
56729;DHT22;42612;52.232;7.560;2022-08-25T05:43:06;26.40;40.40
56729;DHT22;42612;52.232;7.560;2022-08-25T05:45:52;26.50;40.50
56729;DHT22;42612;52.232;7.560;2022-08-25T05:48:40;26.50;40.50
56729;DHT22;42612;52.232;7.560;2022-08-25T05:51:26;26.50;40.40
56729;DHT22;42612;52.232;7.560;2022-08-25T05:54:12;26.50;40.50
56729;DHT22;42612;52.232;7.560;2022-08-25T05:56:58;26.60;40.60
56729;DHT22;42612;52.232;7.560;2022-08-25T05:59:45;26.60;40.60
56729;DHT22;42612;52.232;7.560;2022-08-25T06:02:31;26.70;40.70
56729;DHT22;42612;52.232;7.560;2022-08-25T06:05:28;26.70;40.80
56729;DHT22;42612;52.232;7.560;2022-08-25T06:08:14;26.70;40.80
56729;DHT22;42612;52.232;7.560;2022-08-25T06:11:00;26.70;40.80
56729;DHT22;42612;52.232;7.560;2022-08-25T06:13:46;26.80;40.90
56729;DHT22;42612;52.232;7.560;2022-08-25T06:16:32;26.80;41.60
56729;DHT22;42612;52.232;7.560;2022-08-25T06:19:18;26.80;41.00
56729;DHT22;42612;52.232;7.560;2022-08-25T06:22:05;26.80;41.70
56729;DHT22;42612;52.232;7.560;2022-08-25T06:24:51;26.90;41.10
56729;DHT22;42612;52.232;7.560;2022-08-25T06:27:38;26.90;41.10
56729;DHT22;42612;52.232;7.560;2022-08-25T06:30:24;26.90;41.20
56729;DHT22;42612;52.232;7.560;2022-08-25T06:33:10;26.90;41.20
56729;DHT22;42612;52.232;7.560;2022-08-25T06:35:56;27.00;41.30
56729;DHT22;42612;52.232;7.560;2022-08-25T06:38:42;27.00;41.30
56729;DHT22;42612;52.232;7.560;2022-08-25T06:41:29;27.00;41.40
56729;DHT22;42612;52.232;7.560;2022-08-25T06:44:14;27.10;41.50
56729;DHT22;42612;52.232;7.560;2022-08-25T06:47:00;27.10;41.40
56729;DHT22;42612;52.232;7.560;2022-08-25T06:49:46;27.10;41.40
56729;DHT22;42612;52.232;7.560;2022-08-25T06:52:32;27.20;41.50
56729;DHT22;42612;52.232;7.560;2022-08-25T06:55:18;27.20;41.60
56729;DHT22;42612;52.232;7.560;2022-08-25T06:58:04;27.20;41.60
56729;DHT22;42612;52.232;7.560;2022-08-25T07:00:51;27.30;41.70
56729;DHT22;42612;52.232;7.560;2022-08-25T07:03:38;27.40;41.80
56729;DHT22;42612;52.232;7.560;2022-08-25T07:06:25;27.40;41.80
56729;DHT22;42612;52.232;7.560;2022-08-25T07:09:12;27.40;41.90
56729;DHT22;42612;52.232;7.560;2022-08-25T07:11:59;27.50;42.10
56729;DHT22;42612;52.232;7.560;2022-08-25T07:14:47;27.50;42.00
56729;DHT22;42612;52.232;7.560;2022-08-25T07:17:33;27.60;42.10
56729;DHT22;42612;52.232;7.560;2022-08-25T07:20:18;27.60;42.00
56729;DHT22;42612;52.232;7.560;2022-08-25T07:23:05;27.70;42.20
56729;DHT22;42612;52.232;7.560;2022-08-25T07:25:52;27.80;42.30
56729;DHT22;42612;52.232;7.560;2022-08-25T07:28:38;27.80;42.30
56729;DHT22;42612;52.232;7.560;2022-08-25T07:31:25;27.90;42.30
56729;DHT22;42612;52.232;7.560;2022-08-25T07:34:11;27.90;42.20
56729;DHT22;42612;52.232;7.560;2022-08-25T07:37:15;28.00;42.20
56729;DHT22;42612;52.232;7.560;2022-08-25T07:40:02;28.10;42.50
56729;DHT22;42612;52.232;7.560;2022-08-25T07:42:49;28.10;42.40
56729;DHT22;42612;52.232;7.560;2022-08-25T07:45:37;28.10;42.30
56729;DHT22;42612;52.232;7.560;2022-08-25T07:48:24;28.20;42.30
56729;DHT22;42612;52.232;7.560;2022-08-25T07:51:11;28.30;42.30
56729;DHT22;42612;52.232;7.560;2022-08-25T07:54:01;28.30;42.30
56729;DHT22;42612;52.232;7.560;2022-08-25T07:56:49;28.40;42.30
56729;DHT22;42612;52.232;7.560;2022-08-25T07:59:39;28.50;42.30
56729;DHT22;42612;52.232;7.560;2022-08-25T08:02:26;28.50;42.30
56729;DHT22;42612;52.232;7.560;2022-08-25T08:05:12;28.60;42.20
56729;DHT22;42612;52.232;7.560;2022-08-25T08:07:59;28.70;42.30
56729;DHT22;42612;52.232;7.560;2022-08-25T08:10:45;28.70;42.30
56729;DHT22;42612;52.232;7.560;2022-08-25T08:13:32;28.80;42.20
56729;DHT22;42612;52.232;7.560;2022-08-25T08:16:18;28.90;42.20
56729;DHT22;42612;52.232;7.560;2022-08-25T08:19:05;28.90;42.30
56729;DHT22;42612;52.232;7.560;2022-08-25T08:21:51;29.00;42.20
56729;DHT22;42612;52.232;7.560;2022-08-25T08:24:37;29.00;42.30
56729;DHT22;42612;52.232;7.560;2022-08-25T08:27:23;29.10;42.20
56729;DHT22;42612;52.232;7.560;2022-08-25T08:30:10;29.20;42.30
56729;DHT22;42612;52.232;7.560;2022-08-25T08:32:56;29.20;42.20
56729;DHT22;42612;52.232;7.560;2022-08-25T08:35:42;29.30;42.00
56729;DHT22;42612;52.232;7.560;2022-08-25T08:38:28;29.40;42.10
56729;DHT22;42612;52.232;7.560;2022-08-25T08:50:51;29.60;41.90
56729;DHT22;42612;52.232;7.560;2022-08-25T08:54:03;29.70;41.90
56729;DHT22;42612;52.232;7.560;2022-08-25T08:57:01;29.70;41.70
56729;DHT22;42612;52.232;7.560;2022-08-25T08:59:57;29.80;41.80
56729;DHT22;42612;52.232;7.560;2022-08-25T09:02:55;29.80;41.70
56729;DHT22;42612;52.232;7.560;2022-08-25T09:05:45;29.90;41.70
56729;DHT22;42612;52.232;7.560;2022-08-25T09:08:33;30.00;41.70
56729;DHT22;42612;52.232;7.560;2022-08-25T09:11:30;30.00;41.70
56729;DHT22;42612;52.232;7.560;2022-08-25T09:18:19;30.20;41.50
56729;DHT22;42612;52.232;7.560;2022-08-25T09:20:53;30.20;41.40
56729;DHT22;42612;52.232;7.560;2022-08-25T09:24:12;30.30;41.40
56729;DHT22;42612;52.232;7.560;2022-08-25T09:27:15;30.40;41.30
56729;DHT22;42612;52.232;7.560;2022-08-25T09:30:08;30.40;41.20
56729;DHT22;42612;52.232;7.560;2022-08-25T09:32:56;30.50;41.30
56729;DHT22;42612;52.232;7.560;2022-08-25T09:35:49;30.60;41.20
56729;DHT22;42612;52.232;7.560;2022-08-25T09:38:36;30.70;41.10
56729;DHT22;42612;52.232;7.560;2022-08-25T09:44:31;30.80;41.00
56729;DHT22;42612;52.232;7.560;2022-08-25T09:47:22;30.90;41.00
56729;DHT22;42612;52.232;7.560;2022-08-25T09:50:18;31.00;41.00
56729;DHT22;42612;52.232;7.560;2022-08-25T09:53:12;31.10;41.00
56729;DHT22;42612;52.232;7.560;2022-08-25T09:56:01;31.20;40.90
56729;DHT22;42612;52.232;7.560;2022-08-25T09:58:50;31.30;40.90
56729;DHT22;42612;52.232;7.560;2022-08-25T10:01:44;31.40;41.00
56729;DHT22;42612;52.232;7.560;2022-08-25T10:04:37;31.40;40.80
56729;DHT22;42612;52.232;7.560;2022-08-25T10:07:37;31.50;40.40
56729;DHT22;42612;52.232;7.560;2022-08-25T10:10:27;31.60;40.40
56729;DHT22;42612;52.232;7.560;2022-08-25T10:13:17;31.70;40.40
56729;DHT22;42612;52.232;7.560;2022-08-25T10:16:05;31.70;40.20
56729;DHT22;42612;52.232;7.560;2022-08-25T10:19:00;31.70;40.10
56729;DHT22;42612;52.232;7.560;2022-08-25T10:22:23;31.80;40.10
56729;DHT22;42612;52.232;7.560;2022-08-25T10:25:19;31.90;40.10
56729;DHT22;42612;52.232;7.560;2022-08-25T10:28:22;31.90;40.10
56729;DHT22;42612;52.232;7.560;2022-08-25T10:31:18;32.00;40.10
56729;DHT22;42612;52.232;7.560;2022-08-25T10:34:16;32.10;39.90
56729;DHT22;42612;52.232;7.560;2022-08-25T10:40:06;32.20;40.00
56729;DHT22;42612;52.232;7.560;2022-08-25T10:46:19;32.30;39.80
56729;DHT22;42612;52.232;7.560;2022-08-25T10:49:24;32.40;39.80
56729;DHT22;42612;52.232;7.560;2022-08-25T10:52:16;32.50;39.80
56729;DHT22;42612;52.232;7.560;2022-08-25T10:55:16;32.60;39.60
56729;DHT22;42612;52.232;7.560;2022-08-25T11:01:18;32.70;39.40
56729;DHT22;42612;52.232;7.560;2022-08-25T11:04:14;32.80;39.50
56729;DHT22;42612;52.232;7.560;2022-08-25T11:07:09;32.90;39.60
56729;DHT22;42612;52.232;7.560;2022-08-25T11:10:09;33.00;39.10
56729;DHT22;42612;52.232;7.560;2022-08-25T11:13:02;33.10;39.20
56729;DHT22;42612;52.232;7.560;2022-08-25T11:16:08;33.20;39.40
56729;DHT22;42612;52.232;7.560;2022-08-25T11:22:19;33.30;38.90
56729;DHT22;42612;52.232;7.560;2022-08-25T11:28:26;33.50;38.80
56729;DHT22;42612;52.232;7.560;2022-08-25T11:31:36;33.60;39.00
56729;DHT22;42612;52.232;7.560;2022-08-25T11:34:24;33.70;39.10
56729;DHT22;42612;52.232;7.560;2022-08-25T11:37:13;33.80;39.00
56729;DHT22;42612;52.232;7.560;2022-08-25T11:40:19;33.80;38.70
56729;DHT22;42612;52.232;7.560;2022-08-25T11:43:23;33.90;38.70
56729;DHT22;42612;52.232;7.560;2022-08-25T12:07:20;34.30;38.40
56729;DHT22;42612;52.232;7.560;2022-08-25T12:10:09;34.40;38.40
56729;DHT22;42612;52.232;7.560;2022-08-25T12:13:00;34.40;38.40
56729;DHT22;42612;52.232;7.560;2022-08-25T12:18:38;34.60;38.20
56729;DHT22;42612;52.232;7.560;2022-08-25T12:21:28;34.60;38.10
56729;DHT22;42612;52.232;7.560;2022-08-25T12:24:17;34.70;38.20
56729;DHT22;42612;52.232;7.560;2022-08-25T12:27:06;34.80;37.90
56729;DHT22;42612;52.232;7.560;2022-08-25T12:35:58;35.00;37.60
56729;DHT22;42612;52.232;7.560;2022-08-25T12:38:47;35.10;37.60
56729;DHT22;42612;52.232;7.560;2022-08-25T12:41:34;35.20;37.60
56729;DHT22;42612;52.232;7.560;2022-08-25T12:51:17;35.40;37.10
56729;DHT22;42612;52.232;7.560;2022-08-25T12:57:44;35.40;36.90
56729;DHT22;42612;52.232;7.560;2022-08-25T13:00:47;35.40;37.00
56729;DHT22;42612;52.232;7.560;2022-08-25T13:06:41;35.50;36.80
56729;DHT22;42612;52.232;7.560;2022-08-25T13:09:53;35.50;37.00
56729;DHT22;42612;52.232;7.560;2022-08-25T13:16:14;35.60;35.80
56729;DHT22;42612;52.232;7.560;2022-08-25T13:19:03;35.70;36.60
56729;DHT22;42612;52.232;7.560;2022-08-25T13:21:50;35.70;36.20
56729;DHT22;42612;52.232;7.560;2022-08-25T13:24:40;35.80;36.50
56729;DHT22;42612;52.232;7.560;2022-08-25T13:27:34;35.90;36.70
56729;DHT22;42612;52.232;7.560;2022-08-25T13:30:26;35.90;36.60
56729;DHT22;42612;52.232;7.560;2022-08-25T13:33:16;36.00;35.80
56729;DHT22;42612;52.232;7.560;2022-08-25T13:36:06;36.10;35.90
56729;DHT22;42612;52.232;7.560;2022-08-25T13:39:12;36.10;36.10
56729;DHT22;42612;52.232;7.560;2022-08-25T13:42:00;36.20;36.00
56729;DHT22;42612;52.232;7.560;2022-08-25T13:44:48;36.30;36.20
56729;DHT22;42612;52.232;7.560;2022-08-25T13:47:38;36.30;36.30
56729;DHT22;42612;52.232;7.560;2022-08-25T13:53:12;36.40;36.00
56729;DHT22;42612;52.232;7.560;2022-08-25T13:56:00;36.50;35.80
56729;DHT22;42612;52.232;7.560;2022-08-25T13:58:47;36.60;35.80
56729;DHT22;42612;52.232;7.560;2022-08-25T14:01:34;36.70;35.80
56729;DHT22;42612;52.232;7.560;2022-08-25T14:07:28;36.80;35.60
56729;DHT22;42612;52.232;7.560;2022-08-25T14:10:35;36.80;35.60
56729;DHT22;42612;52.232;7.560;2022-08-25T14:13:28;36.90;35.60
56729;DHT22;42612;52.232;7.560;2022-08-25T14:16:20;37.00;35.30
56729;DHT22;42612;52.232;7.560;2022-08-25T14:19:11;37.10;35.10
56729;DHT22;42612;52.232;7.560;2022-08-25T14:22:07;37.10;35.00
56729;DHT22;42612;52.232;7.560;2022-08-25T14:24:53;37.20;35.10
56729;DHT22;42612;52.232;7.560;2022-08-25T14:27:40;37.20;35.10
56729;DHT22;42612;52.232;7.560;2022-08-25T14:30:28;37.30;35.10
56729;DHT22;42612;52.232;7.560;2022-08-25T14:33:15;37.30;35.10
56729;DHT22;42612;52.232;7.560;2022-08-25T14:36:03;37.30;35.00
56729;DHT22;42612;52.232;7.560;2022-08-25T14:38:49;37.40;34.70
56729;DHT22;42612;52.232;7.560;2022-08-25T14:41:37;37.40;34.60
56729;DHT22;42612;52.232;7.560;2022-08-25T14:44:25;37.40;34.40
56729;DHT22;42612;52.232;7.560;2022-08-25T14:47:11;37.30;34.50
56729;DHT22;42612;52.232;7.560;2022-08-25T14:49:57;37.30;34.50
56729;DHT22;42612;52.232;7.560;2022-08-25T14:52:43;37.20;34.40
56729;DHT22;42612;52.232;7.560;2022-08-25T14:55:29;37.20;34.10
56729;DHT22;42612;52.232;7.560;2022-08-25T14:58:15;37.10;34.20
56729;DHT22;42612;52.232;7.560;2022-08-25T15:01:03;37.00;34.00
56729;DHT22;42612;52.232;7.560;2022-08-25T15:03:51;36.90;34.00
56729;DHT22;42612;52.232;7.560;2022-08-25T15:06:39;37.00;33.70
56729;DHT22;42612;52.232;7.560;2022-08-25T15:09:27;37.00;34.00
56729;DHT22;42612;52.232;7.560;2022-08-25T15:12:13;37.00;34.30
56729;DHT22;42612;52.232;7.560;2022-08-25T15:14:59;36.90;34.30
56729;DHT22;42612;52.232;7.560;2022-08-25T15:17:46;37.00;34.40
56729;DHT22;42612;52.232;7.560;2022-08-25T15:20:32;37.00;34.30
56729;DHT22;42612;52.232;7.560;2022-08-25T15:23:18;37.10;33.80
56729;DHT22;42612;52.232;7.560;2022-08-25T15:26:04;37.10;33.70
56729;DHT22;42612;52.232;7.560;2022-08-25T15:28:50;37.10;33.90
56729;DHT22;42612;52.232;7.560;2022-08-25T15:31:37;37.10;33.80
56729;DHT22;42612;52.232;7.560;2022-08-25T15:34:24;37.20;33.80
56729;DHT22;42612;52.232;7.560;2022-08-25T15:37:11;37.30;34.20
56729;DHT22;42612;52.232;7.560;2022-08-25T15:39:59;37.30;34.00
56729;DHT22;42612;52.232;7.560;2022-08-25T15:42:45;37.30;34.10
56729;DHT22;42612;52.232;7.560;2022-08-25T15:45:31;37.30;33.80
56729;DHT22;42612;52.232;7.560;2022-08-25T15:48:17;37.40;33.80
56729;DHT22;42612;52.232;7.560;2022-08-25T15:51:03;37.40;33.90
56729;DHT22;42612;52.232;7.560;2022-08-25T15:53:49;37.40;33.70
56729;DHT22;42612;52.232;7.560;2022-08-25T15:56:36;37.40;33.60
56729;DHT22;42612;52.232;7.560;2022-08-25T15:59:22;37.40;33.60
56729;DHT22;42612;52.232;7.560;2022-08-25T16:02:08;37.50;33.60
56729;DHT22;42612;52.232;7.560;2022-08-25T16:04:54;37.50;33.60
56729;DHT22;42612;52.232;7.560;2022-08-25T16:07:40;37.50;33.60
56729;DHT22;42612;52.232;7.560;2022-08-25T16:10:26;37.50;33.10
56729;DHT22;42612;52.232;7.560;2022-08-25T16:13:12;37.50;33.40
56729;DHT22;42612;52.232;7.560;2022-08-25T16:15:58;37.50;33.30
56729;DHT22;42612;52.232;7.560;2022-08-25T16:18:44;37.50;33.30
56729;DHT22;42612;52.232;7.560;2022-08-25T16:21:32;37.50;33.40
56729;DHT22;42612;52.232;7.560;2022-08-25T16:24:19;37.50;33.40
56729;DHT22;42612;52.232;7.560;2022-08-25T16:27:05;37.60;33.40
56729;DHT22;42612;52.232;7.560;2022-08-25T16:29:51;37.60;33.30
56729;DHT22;42612;52.232;7.560;2022-08-25T16:32:39;37.60;33.30
56729;DHT22;42612;52.232;7.560;2022-08-25T16:35:25;37.60;33.20
56729;DHT22;42612;52.232;7.560;2022-08-25T16:38:12;37.60;34.00
56729;DHT22;42612;52.232;7.560;2022-08-25T16:40:58;37.60;33.20
56729;DHT22;42612;52.232;7.560;2022-08-25T16:43:45;37.60;33.10
56729;DHT22;42612;52.232;7.560;2022-08-25T16:46:31;37.60;33.10
56729;DHT22;42612;52.232;7.560;2022-08-25T16:49:18;37.50;33.00
56729;DHT22;42612;52.232;7.560;2022-08-25T16:52:04;37.50;32.90
56729;DHT22;42612;52.232;7.560;2022-08-25T16:55:10;37.50;33.60
56729;DHT22;42612;52.232;7.560;2022-08-25T16:57:59;37.50;32.80
56729;DHT22;42612;52.232;7.560;2022-08-25T17:00:45;37.40;32.80
56729;DHT22;42612;52.232;7.560;2022-08-25T17:03:32;37.30;32.80
56729;DHT22;42612;52.232;7.560;2022-08-25T17:06:19;37.30;32.60
56729;DHT22;42612;52.232;7.560;2022-08-25T17:09:07;37.30;32.70
56729;DHT22;42612;52.232;7.560;2022-08-25T17:11:54;37.20;32.60
56729;DHT22;42612;52.232;7.560;2022-08-25T17:14:41;37.10;32.60
56729;DHT22;42612;52.232;7.560;2022-08-25T17:17:27;37.10;32.60
56729;DHT22;42612;52.232;7.560;2022-08-25T17:20:13;37.00;32.70
56729;DHT22;42612;52.232;7.560;2022-08-25T17:23:00;36.90;32.70
56729;DHT22;42612;52.232;7.560;2022-08-25T17:25:46;36.80;32.70
56729;DHT22;42612;52.232;7.560;2022-08-25T17:28:34;36.90;32.70
56729;DHT22;42612;52.232;7.560;2022-08-25T17:31:20;36.80;32.70
56729;DHT22;42612;52.232;7.560;2022-08-25T17:34:07;36.70;32.60
56729;DHT22;42612;52.232;7.560;2022-08-25T17:36:55;36.70;32.70
56729;DHT22;42612;52.232;7.560;2022-08-25T17:39:42;36.60;32.60
56729;DHT22;42612;52.232;7.560;2022-08-25T17:42:28;36.60;32.70
56729;DHT22;42612;52.232;7.560;2022-08-25T17:45:16;36.50;32.60
56729;DHT22;42612;52.232;7.560;2022-08-25T17:48:02;36.40;32.70
56729;DHT22;42612;52.232;7.560;2022-08-25T17:50:48;36.30;32.70
56729;DHT22;42612;52.232;7.560;2022-08-25T17:53:35;36.20;32.70
56729;DHT22;42612;52.232;7.560;2022-08-25T17:56:22;36.20;32.70
56729;DHT22;42612;52.232;7.560;2022-08-25T17:59:09;36.10;32.70
56729;DHT22;42612;52.232;7.560;2022-08-25T18:01:56;36.00;32.80
56729;DHT22;42612;52.232;7.560;2022-08-25T18:04:43;35.90;32.90
56729;DHT22;42612;52.232;7.560;2022-08-25T18:07:29;35.80;32.90
56729;DHT22;42612;52.232;7.560;2022-08-25T18:10:15;35.70;33.00
56729;DHT22;42612;52.232;7.560;2022-08-25T18:13:01;35.60;33.00
56729;DHT22;42612;52.232;7.560;2022-08-25T18:15:47;35.50;33.00
56729;DHT22;42612;52.232;7.560;2022-08-25T18:18:34;35.40;33.10
56729;DHT22;42612;52.232;7.560;2022-08-25T18:21:21;35.30;33.20
56729;DHT22;42612;52.232;7.560;2022-08-25T18:24:09;35.20;34.00
56729;DHT22;42612;52.232;7.560;2022-08-25T18:26:55;35.10;33.40
56729;DHT22;42612;52.232;7.560;2022-08-25T18:29:41;35.00;33.40
56729;DHT22;42612;52.232;7.560;2022-08-25T18:32:27;34.90;33.60
56729;DHT22;42612;52.232;7.560;2022-08-25T18:35:13;34.80;33.70
56729;DHT22;42612;52.232;7.560;2022-08-25T18:37:59;34.70;33.80
56729;DHT22;42612;52.232;7.560;2022-08-25T18:41:04;34.60;33.90
56729;DHT22;42612;52.232;7.560;2022-08-25T18:43:51;34.40;33.90
56729;DHT22;42612;52.232;7.560;2022-08-25T18:46:37;34.30;34.00
56729;DHT22;42612;52.232;7.560;2022-08-25T18:49:24;34.20;34.10
56729;DHT22;42612;52.232;7.560;2022-08-25T18:52:10;34.10;34.20
56729;DHT22;42612;52.232;7.560;2022-08-25T18:54:56;33.90;34.10
56729;DHT22;42612;52.232;7.560;2022-08-25T18:57:43;33.80;34.20
56729;DHT22;42612;52.232;7.560;2022-08-25T19:00:30;33.70;34.40
56729;DHT22;42612;52.232;7.560;2022-08-25T19:03:17;33.60;34.50
56729;DHT22;42612;52.232;7.560;2022-08-25T19:06:05;33.50;34.60
56729;DHT22;42612;52.232;7.560;2022-08-25T19:08:51;33.40;34.70
56729;DHT22;42612;52.232;7.560;2022-08-25T19:11:38;33.20;34.60
56729;DHT22;42612;52.232;7.560;2022-08-25T19:14:24;33.10;34.70
56729;DHT22;42612;52.232;7.560;2022-08-25T19:17:10;33.00;34.90
56729;DHT22;42612;52.232;7.560;2022-08-25T19:19:56;32.90;35.00
56729;DHT22;42612;52.232;7.560;2022-08-25T19:22:42;32.80;35.20
56729;DHT22;42612;52.232;7.560;2022-08-25T19:25:28;32.70;35.30